Time;durP1;ratioP1;P1;durP2;ratioP2;P2;SDS_P1;SDS_P2;PMS_P1;PMS_P2;Temp;Humidity;BMP_temperature;BMP_pressure;BME280_temperature;BME280_humidity;BME280_pressure;Samples;Min_cycle;Max_cycle;Signal;HPM_P1;HPM_P2
2022/07/07 00:01:47;;;;;;;0.10;0.10;;;16.80;99.90;;;;;;6208532;23;20017;-78
2022/07/07 00:04:13;;;;;;;0.10;0.10;;;16.80;99.90;;;;;;6210234;23;20090;-77
2022/07/07 00:06:39;;;;;;;0.10;0.10;;;16.80;99.90;;;;;;6210024;23;20016;-78
2022/07/07 00:09:11;;;;;;;0.20;0.20;;;16.90;99.90;;;;;;6182177;23;20105;-77
2022/07/07 00:11:37;;;;;;;0.13;0.13;;;16.90;99.90;;;;;;6183522;23;20017;-77
2022/07/07 00:14:06;;;;;;;0.10;0.10;;;16.90;99.90;;;;;;6182904;23;20043;-76
2022/07/07 00:16:32;;;;;;;0.10;0.10;;;16.80;99.90;;;;;;6182174;23;20062;-77
2022/07/07 00:18:58;;;;;;;0.13;0.13;;;16.90;99.90;;;;;;6209858;23;20033;-77
2022/07/07 00:21:23;;;;;;;0.10;0.10;;;16.90;99.90;;;;;;6181929;23;20009;-77
2022/07/07 00:23:49;;;;;;;0.20;0.20;;;16.90;99.90;;;;;;6210072;23;20306;-76
2022/07/07 00:26:15;;;;;;;0.10;0.10;;;16.90;99.90;;;;;;6182979;23;20278;-75
2022/07/07 00:28:40;;;;;;;0.20;0.20;;;16.90;99.90;;;;;;6209325;23;20010;-76
2022/07/07 00:31:06;;;;;;;0.20;0.20;;;16.90;99.90;;;;;;6183030;23;20017;-75
2022/07/07 00:33:34;;;;;;;0.10;0.10;;;16.90;99.90;;;;;;6210152;23;20621;-76
2022/07/07 00:36:03;;;;;;;0.20;0.20;;;16.90;99.90;;;;;;6182032;23;20051;-75
2022/07/07 00:38:30;;;;;;;0.10;0.10;;;16.90;99.90;;;;;;6183966;23;20074;-74
2022/07/07 00:40:55;;;;;;;0.20;0.20;;;16.90;99.90;;;;;;6183624;23;20023;-75
2022/07/07 00:43:21;;;;;;;0.10;0.10;;;16.90;99.90;;;;;;6208888;23;20017;-76
2022/07/07 00:45:48;;;;;;;0.10;0.10;;;16.90;99.90;;;;;;6183941;23;20013;-74
2022/07/07 00:48:17;;;;;;;0.20;0.20;;;16.90;99.90;;;;;;6182913;23;20013;-75
2022/07/07 00:50:45;;;;;;;0.20;0.20;;;16.90;99.90;;;;;;6181905;23;20051;-77
2022/07/07 00:53:10;;;;;;;0.10;0.10;;;16.90;99.90;;;;;;6182717;23;20398;-76
2022/07/07 00:55:36;;;;;;;0.10;0.10;;;16.80;99.90;;;;;;6209627;23;20052;-77
2022/07/07 00:58:02;;;;;;;0.10;0.10;;;16.80;99.90;;;;;;6208069;23;20029;-77
2022/07/07 01:00:31;;;;;;;0.10;0.10;;;16.70;99.90;;;;;;6181894;23;20016;-77
2022/07/07 01:03:01;;;;;;;0.20;0.20;;;16.70;99.90;;;;;;6209358;23;20021;-76
2022/07/07 01:05:28;;;;;;;0.20;0.20;;;16.60;99.90;;;;;;6210455;23;20013;-75
2022/07/07 01:07:54;;;;;;;0.20;0.20;;;16.60;99.90;;;;;;6180880;23;20020;-76
2022/07/07 01:10:20;;;;;;;0.10;0.10;;;16.60;99.90;;;;;;6210947;23;20017;-76
2022/07/07 01:12:46;;;;;;;0.17;0.17;;;16.60;99.90;;;;;;6207957;23;20103;-76
2022/07/07 01:15:13;;;;;;;0.10;0.10;;;16.50;99.90;;;;;;6183504;23;20029;-76
2022/07/07 01:17:43;;;;;;;0.20;0.20;;;16.60;99.90;;;;;;6181915;23;20019;-75
2022/07/07 01:20:10;;;;;;;0.10;0.10;;;16.50;99.90;;;;;;6183121;23;20027;-77
2022/07/07 01:22:38;;;;;;;0.10;0.10;;;16.50;99.90;;;;;;6182698;23;20048;-75
2022/07/07 01:25:04;;;;;;;0.10;0.10;;;16.50;99.90;;;;;;6182259;23;20134;-75
2022/07/07 01:27:30;;;;;;;0.13;0.13;;;16.50;99.90;;;;;;6181126;23;20027;-76
2022/07/07 01:30:00;;;;;;;0.10;0.10;;;16.50;99.90;;;;;;6180747;23;20021;-76
2022/07/07 01:32:32;;;;;;;0.10;0.10;;;16.50;99.90;;;;;;6208261;23;20528;-76
2022/07/07 01:35:00;;;;;;;0.20;0.20;;;16.50;99.90;;;;;;6179394;23;20013;-76
2022/07/07 01:37:35;;;;;;;0.20;0.20;;;16.40;99.90;;;;;;6209477;23;20286;-76
2022/07/07 01:40:01;;;;;;;0.20;0.20;;;16.40;99.90;;;;;;6181506;23;20023;-76
2022/07/07 01:42:27;;;;;;;0.10;0.10;;;16.50;99.90;;;;;;6181078;23;20052;-76
2022/07/07 01:44:53;;;;;;;0.10;0.10;;;16.40;99.90;;;;;;6208553;23;20382;-76
2022/07/07 01:47:24;;;;;;;0.15;0.15;;;16.40;99.90;;;;;;6181923;23;20110;-77
2022/07/07 01:49:50;;;;;;;0.17;0.17;;;16.40;99.90;;;;;;6182904;23;20019;-77
2022/07/07 01:52:16;;;;;;;0.10;0.10;;;16.40;99.90;;;;;;6182155;23;20017;-76
2022/07/07 01:54:42;;;;;;;0.20;0.20;;;16.40;99.90;;;;;;6207462;23;20017;-77
2022/07/07 01:57:11;;;;;;;0.20;0.20;;;16.40;99.90;;;;;;6182298;23;20074;-77
2022/07/07 01:59:38;;;;;;;0.10;0.10;;;16.40;99.90;;;;;;6209506;23;20052;-76
2022/07/07 02:02:04;;;;;;;0.20;0.20;;;16.40;99.90;;;;;;6181151;23;20016;-79
2022/07/07 02:04:29;;;;;;;0.10;0.10;;;16.50;99.90;;;;;;6183495;23;20353;-79
2022/07/07 02:06:55;;;;;;;0.10;0.10;;;16.50;99.90;;;;;;6181890;23;20098;-77
2022/07/07 02:09:21;;;;;;;0.17;0.17;;;16.50;99.90;;;;;;6181354;23;20028;-76
2022/07/07 02:11:47;;;;;;;0.10;0.10;;;16.40;99.90;;;;;;6182132;23;20036;-76
2022/07/07 02:14:12;;;;;;;0.10;0.10;;;16.50;99.90;;;;;;6180180;23;20035;-76
2022/07/07 02:16:38;;;;;;;0.10;0.10;;;16.40;99.90;;;;;;6208586;23;20016;-76
2022/07/07 02:19:06;;;;;;;0.10;0.10;;;16.40;99.90;;;;;;6182886;23;20012;-76
2022/07/07 02:21:35;;;;;;;0.15;0.15;;;16.40;99.90;;;;;;6208071;23;20055;-76
2022/07/07 02:24:04;;;;;;;0.10;0.10;;;16.50;99.90;;;;;;6180790;23;20023;-76
2022/07/07 02:26:32;;;;;;;0.13;0.13;;;16.50;99.90;;;;;;6183085;23;20016;-76
2022/07/07 02:28:58;;;;;;;0.20;0.20;;;16.40;99.90;;;;;;6208082;23;20475;-77
2022/07/07 02:31:24;;;;;;;0.20;0.20;;;16.40;99.90;;;;;;6181552;23;20052;-76
2022/07/07 02:33:49;;;;;;;0.20;0.20;;;16.40;99.90;;;;;;6209620;23;20062;-76
2022/07/07 02:36:15;;;;;;;0.10;0.10;;;16.40;99.90;;;;;;6207329;23;20083;-76
2022/07/07 02:38:41;;;;;;;0.20;0.20;;;16.40;99.90;;;;;;6181647;23;20019;-76
2022/07/07 02:41:07;;;;;;;0.20;0.20;;;16.40;99.90;;;;;;6209821;23;20013;-76
2022/07/07 02:43:37;;;;;;;0.20;0.20;;;16.40;99.90;;;;;;6178028;23;20158;-76
2022/07/07 02:46:03;;;;;;;0.20;0.20;;;16.50;99.90;;;;;;6207312;23;20116;-77
2022/07/07 02:48:29;;;;;;;0.20;0.20;;;16.50;99.90;;;;;;6208834;23;20026;-77
2022/07/07 02:50:55;;;;;;;0.10;0.10;;;16.40;99.90;;;;;;6207922;23;20040;-76
2022/07/07 02:53:21;;;;;;;0.10;0.10;;;16.50;99.90;;;;;;6208737;23;20056;-76
2022/07/07 02:55:47;;;;;;;0.10;0.10;;;16.40;99.90;;;;;;6209471;23;20009;-76
2022/07/07 02:58:19;;;;;;;0.10;0.10;;;16.40;99.90;;;;;;6180052;23;20408;-76
2022/07/07 03:00:47;;;;;;;0.20;0.20;;;16.40;99.90;;;;;;6208798;23;20024;-77
2022/07/07 03:03:13;;;;;;;0.10;0.10;;;16.40;99.90;;;;;;6181074;23;20025;-77
2022/07/07 03:05:38;;;;;;;0.10;0.10;;;16.50;99.90;;;;;;6207921;23;20032;-78
2022/07/07 03:08:04;;;;;;;0.20;0.20;;;16.40;99.90;;;;;;6182204;23;20253;-76
2022/07/07 03:10:30;;;;;;;0.10;0.10;;;16.40;99.90;;;;;;6209134;23;20111;-75
2022/07/07 03:12:56;;;;;;;0.10;0.10;;;16.40;99.90;;;;;;6208209;23;20048;-78
2022/07/07 03:15:22;;;;;;;0.20;0.20;;;16.40;99.90;;;;;;6183390;23;20028;-76
2022/07/07 03:17:48;;;;;;;0.10;0.10;;;16.40;99.90;;;;;;6180163;23;20472;-75
2022/07/07 03:20:18;;;;;;;0.10;0.10;;;16.40;99.90;;;;;;6210168;23;20107;-75
2022/07/07 03:22:44;;;;;;;0.17;0.17;;;16.40;99.90;;;;;;6209043;23;20023;-75
2022/07/07 03:25:13;;;;;;;0.20;0.20;;;16.50;99.90;;;;;;6208702;23;20092;-75
2022/07/07 03:27:39;;;;;;;0.17;0.17;;;16.40;99.90;;;;;;6181980;23;20099;-75
2022/07/07 03:30:06;;;;;;;0.10;0.10;;;16.30;99.90;;;;;;6182237;23;20533;-76
2022/07/07 03:32:35;;;;;;;0.20;0.20;;;16.30;99.90;;;;;;6207286;23;20033;-76
2022/07/07 03:35:00;;;;;;;0.10;0.10;;;16.30;99.90;;;;;;6208974;23;20306;-76
2022/07/07 03:37:26;;;;;;;0.10;0.10;;;16.30;99.90;;;;;;6183405;23;20087;-75
2022/07/07 03:39:52;;;;;;;0.10;0.10;;;16.20;99.90;;;;;;6210269;23;20170;-75
2022/07/07 03:42:18;;;;;;;0.20;0.20;;;16.20;99.90;;;;;;6211538;23;20131;-75
2022/07/07 03:44:44;;;;;;;0.10;0.10;;;16.20;99.90;;;;;;6208644;23;20460;-78
2022/07/07 03:47:11;;;;;;;0.20;0.20;;;16.20;99.90;;;;;;6209906;23;20023;-79
2022/07/07 03:49:37;;;;;;;0.10;0.10;;;16.10;99.90;;;;;;6210867;23;20471;-77
2022/07/07 03:52:03;;;;;;;0.10;0.10;;;16.10;99.90;;;;;;6208411;23;20051;-77
2022/07/07 03:54:29;;;;;;;0.15;0.15;;;16.10;99.90;;;;;;6209392;23;20028;-75
2022/07/07 03:56:57;;;;;;;0.10;0.10;;;16.10;99.90;;;;;;6211805;23;20017;-76
2022/07/07 03:59:33;;;;;;;0.17;0.17;;;16.10;99.90;;;;;;6209039;23;20056;-76
2022/07/07 04:01:58;;;;;;;0.10;0.10;;;16.00;99.90;;;;;;6182261;23;20023;-76
2022/07/07 04:04:24;;;;;;;0.20;0.20;;;16.10;99.90;;;;;;6184326;23;20023;-79
2022/07/07 04:06:50;;;;;;;0.20;0.20;;;16.00;99.90;;;;;;6182767;23;20127;-77
2022/07/07 04:09:15;;;;;;;0.10;0.10;;;16.00;99.90;;;;;;6211209;23;20013;-77
2022/07/07 04:11:41;;;;;;;0.10;0.10;;;16.00;99.90;;;;;;6212281;23;20008;-77
2022/07/07 04:14:06;;;;;;;0.15;0.15;;;16.00;99.90;;;;;;6209295;23;20052;-79
2022/07/07 04:16:33;;;;;;;0.20;0.20;;;16.00;99.90;;;;;;6211608;23;20032;-79
2022/07/07 04:18:58;;;;;;;0.10;0.10;;;15.90;99.90;;;;;;6210582;23;20586;-76
2022/07/07 04:21:24;;;;;;;0.10;0.10;;;15.80;99.90;;;;;;6210735;23;20020;-80
2022/07/07 04:23:50;;;;;;;0.13;0.13;;;15.80;99.90;;;;;;6182962;23;20361;-76
2022/07/07 04:26:18;;;;;;;0.15;0.15;;;15.80;99.90;;;;;;6184785;23;20096;-78
2022/07/07 04:28:44;;;;;;;0.20;0.20;;;15.70;99.90;;;;;;6180412;23;20476;-80
2022/07/07 04:31:09;;;;;;;0.10;0.10;;;15.70;99.90;;;;;;6182279;23;20020;-80
2022/07/07 04:33:35;;;;;;;0.10;0.10;;;15.70;99.90;;;;;;6183383;23;20039;-80
2022/07/07 04:36:00;;;;;;;0.20;0.20;;;15.70;99.90;;;;;;6183291;23;20016;-80
2022/07/07 04:38:26;;;;;;;0.10;0.10;;;15.70;99.90;;;;;;6210394;23;20027;-79
2022/07/07 04:40:55;;;;;;;0.10;0.10;;;15.70;99.90;;;;;;6182940;23;20175;-79
2022/07/07 04:43:20;;;;;;;0.10;0.10;;;15.70;99.90;;;;;;6182110;23;20127;-78
2022/07/07 04:45:46;;;;;;;0.10;0.10;;;15.60;99.90;;;;;;6184368;23;20044;-79
2022/07/07 04:48:11;;;;;;;0.20;0.20;;;15.60;99.90;;;;;;6183611;23;20020;-80
2022/07/07 04:50:37;;;;;;;0.20;0.20;;;15.60;99.90;;;;;;6182432;23;20035;-77
2022/07/07 04:53:03;;;;;;;0.10;0.10;;;15.60;99.90;;;;;;6209308;23;20016;-75
2022/07/07 04:55:31;;;;;;;0.10;0.10;;;15.60;99.90;;;;;;6211018;23;20017;-77
2022/07/07 04:57:57;;;;;;;0.17;0.17;;;15.60;99.90;;;;;;6206824;23;20028;-77
2022/07/07 05:00:22;;;;;;;0.13;0.13;;;15.60;99.90;;;;;;6210604;23;20031;-77
2022/07/07 05:02:48;;;;;;;0.15;0.15;;;15.60;99.90;;;;;;6183166;23;20013;-76
2022/07/07 05:05:14;;;;;;;0.10;0.10;;;15.60;99.90;;;;;;6184429;23;20043;-77
2022/07/07 05:07:40;;;;;;;0.10;0.10;;;15.60;99.90;;;;;;6209338;23;20012;-77
2022/07/07 05:10:06;;;;;;;0.10;0.10;;;15.60;99.90;;;;;;6182859;23;20078;-76
2022/07/07 05:12:31;;;;;;;0.20;0.20;;;15.60;99.90;;;;;;6210403;23;20227;-76
2022/07/07 05:14:57;;;;;;;0.20;0.20;;;15.70;99.90;;;;;;6210808;23;20390;-75
2022/07/07 05:17:23;;;;;;;0.10;0.10;;;15.50;99.90;;;;;;6210134;23;20020;-75
2022/07/07 05:19:48;;;;;;;0.10;0.10;;;15.50;99.90;;;;;;6210757;23;20013;-78
2022/07/07 05:22:14;;;;;;;0.13;0.13;;;15.60;99.90;;;;;;6183569;23;20409;-77
2022/07/07 05:24:39;;;;;;;0.10;0.10;;;15.50;99.90;;;;;;6181946;23;20110;-77
2022/07/07 05:27:05;;;;;;;0.10;0.10;;;15.50;99.90;;;;;;6208889;23;20083;-76
2022/07/07 05:29:34;;;;;;;0.10;0.10;;;15.50;99.90;;;;;;6209901;23;20017;-77
2022/07/07 05:31:59;;;;;;;0.20;0.20;;;15.50;99.90;;;;;;6181702;23;20020;-77
2022/07/07 05:34:25;;;;;;;0.13;0.13;;;15.60;99.90;;;;;;6210071;23;20029;-76
2022/07/07 05:36:51;;;;;;;0.20;0.20;;;15.50;99.90;;;;;;6211116;23;20023;-77
2022/07/07 05:39:16;;;;;;;0.20;0.20;;;15.50;99.90;;;;;;6181759;23;20012;-75
2022/07/07 05:41:42;;;;;;;0.10;0.10;;;15.40;99.90;;;;;;6210345;23;20022;-75
2022/07/07 05:44:08;;;;;;;0.10;0.10;;;15.50;99.90;;;;;;6206122;23;20009;-74
2022/07/07 05:46:34;;;;;;;0.10;0.10;;;15.50;99.90;;;;;;6207693;23;20083;-73
2022/07/07 05:49:00;;;;;;;0.20;0.20;;;15.50;99.90;;;;;;6208723;23;20381;-72
2022/07/07 05:51:26;;;;;;;0.10;0.10;;;15.50;99.90;;;;;;6183048;23;20024;-73
2022/07/07 05:53:52;;;;;;;0.10;0.10;;;15.50;99.90;;;;;;6181413;23;20020;-74
2022/07/07 05:56:18;;;;;;;0.10;0.10;;;15.50;99.90;;;;;;6209391;23;20044;-73
2022/07/07 05:58:43;;;;;;;0.20;0.20;;;15.70;99.90;;;;;;6208694;23;20362;-73
2022/07/07 06:01:09;;;;;;;0.20;0.20;;;15.60;99.90;;;;;;6182762;23;20040;-73
2022/07/07 06:03:34;;;;;;;0.20;0.20;;;15.60;99.90;;;;;;6210057;23;20013;-73
2022/07/07 06:06:00;;;;;;;0.10;0.10;;;15.60;99.90;;;;;;6210539;23;20086;-72
2022/07/07 06:08:28;;;;;;;0.10;0.10;;;15.80;99.90;;;;;;6182600;23;20020;-73
2022/07/07 06:10:54;;;;;;;0.20;0.20;;;15.70;99.90;;;;;;6210093;23;20298;-73
2022/07/07 06:13:19;;;;;;;0.20;0.20;;;15.70;99.90;;;;;;6208367;23;20021;-73
2022/07/07 06:15:45;;;;;;;0.20;0.20;;;15.70;99.90;;;;;;6182900;23;20039;-73
2022/07/07 06:18:10;;;;;;;0.17;0.17;;;15.80;99.90;;;;;;6183189;23;20020;-73
2022/07/07 06:20:36;;;;;;;0.20;0.20;;;15.70;99.90;;;;;;6180084;23;20020;-73
2022/07/07 06:23:06;;;;;;;0.10;0.10;;;15.70;99.90;;;;;;6182228;23;20074;-73
2022/07/07 06:25:31;;;;;;;0.15;0.15;;;15.80;99.90;;;;;;6183222;23;20216;-73
2022/07/07 06:27:57;;;;;;;0.10;0.10;;;15.80;99.90;;;;;;6207701;23;20032;-73
2022/07/07 06:30:24;;;;;;;0.20;0.20;;;15.80;99.90;;;;;;6210250;23;20445;-73
2022/07/07 06:32:49;;;;;;;0.10;0.10;;;15.80;99.90;;;;;;6181043;23;20067;-73
2022/07/07 06:35:15;;;;;;;0.20;0.20;;;15.90;99.90;;;;;;6207602;23;20086;-73
2022/07/07 06:37:41;;;;;;;0.10;0.10;;;15.90;99.90;;;;;;6182275;23;20016;-73
2022/07/07 06:40:07;;;;;;;0.10;0.10;;;15.90;99.90;;;;;;6183405;23;20475;-73
2022/07/07 06:42:33;;;;;;;0.10;0.10;;;15.90;99.90;;;;;;6208190;23;20124;-73
2022/07/07 06:44:58;;;;;;;0.10;0.10;;;15.90;99.90;;;;;;6182184;23;20017;-73
2022/07/07 06:47:24;;;;;;;0.10;0.10;;;15.80;99.90;;;;;;6180869;23;20060;-73
2022/07/07 06:49:50;;;;;;;0.13;0.13;;;15.90;99.90;;;;;;6205004;23;20052;-75
2022/07/07 06:52:15;;;;;;;0.20;0.20;;;16.00;99.90;;;;;;6209335;23;20016;-73
2022/07/07 06:54:41;;;;;;;0.20;0.20;;;16.00;99.90;;;;;;6210170;23;20020;-73
2022/07/07 06:57:07;;;;;;;0.20;0.20;;;16.10;99.90;;;;;;6206909;23;20044;-73
2022/07/07 06:59:33;;;;;;;0.10;0.10;;;16.10;99.90;;;;;;6208410;23;20119;-74
2022/07/07 07:01:59;;;;;;;0.10;0.10;;;16.20;99.90;;;;;;6181368;23;20024;-72
2022/07/07 07:04:31;;;;;;;0.10;0.10;;;16.20;99.90;;;;;;6205181;23;20020;-72
2022/07/07 07:06:57;;;;;;;0.10;0.10;;;16.20;99.90;;;;;;6180427;23;20020;-73
2022/07/07 07:09:26;;;;;;;0.20;0.20;;;16.30;99.90;;;;;;6177799;23;20026;-74
2022/07/07 07:11:52;;;;;;;0.10;0.10;;;16.30;99.90;;;;;;6179665;23;20491;-73
2022/07/07 07:14:21;;;;;;;0.17;0.17;;;16.30;99.90;;;;;;6209624;23;20099;-73
2022/07/07 07:16:47;;;;;;;0.20;0.20;;;16.30;99.90;;;;;;6211498;23;20111;-73
2022/07/07 07:19:12;;;;;;;0.20;0.20;;;16.20;99.90;;;;;;6209297;23;20095;-73
2022/07/07 07:21:41;;;;;;;0.10;0.10;;;16.20;99.90;;;;;;6208509;23;20020;-74
2022/07/07 07:24:07;;;;;;;0.20;0.20;;;16.20;99.90;;;;;;6203636;23;20504;-73
2022/07/07 07:26:32;;;;;;;0.10;0.10;;;16.30;99.90;;;;;;6207391;23;20032;-73
2022/07/07 07:28:58;;;;;;;0.10;0.10;;;16.30;99.90;;;;;;6206989;23;20463;-73
2022/07/07 07:31:24;;;;;;;0.20;0.20;;;16.40;99.90;;;;;;6204261;23;20091;-73
2022/07/07 07:33:49;;;;;;;0.10;0.10;;;16.50;99.90;;;;;;6182063;23;20170;-73
2022/07/07 07:36:15;;;;;;;0.10;0.10;;;16.30;99.90;;;;;;6208842;23;20013;-74
2022/07/07 07:38:43;;;;;;;0.20;0.20;;;16.40;99.90;;;;;;6207134;23;20044;-73
2022/07/07 07:41:11;;;;;;;0.20;0.20;;;16.50;99.90;;;;;;6207071;23;20021;-73
2022/07/07 07:43:37;;;;;;;0.10;0.10;;;16.40;99.90;;;;;;6205325;23;20393;-73
2022/07/07 07:46:03;;;;;;;0.10;0.10;;;16.40;99.90;;;;;;6182723;23;20017;-73
2022/07/07 07:48:29;;;;;;;0.20;0.20;;;16.30;99.90;;;;;;6181202;23;20021;-73
2022/07/07 07:50:54;;;;;;;0.10;0.10;;;16.30;99.90;;;;;;6207026;23;20125;-73
2022/07/07 07:53:23;;;;;;;0.20;0.20;;;16.30;99.90;;;;;;6181717;23;20107;-73
2022/07/07 07:55:50;;;;;;;0.10;0.10;;;16.50;99.90;;;;;;6184002;23;20024;-73
2022/07/07 07:58:16;;;;;;;0.20;0.20;;;16.40;99.90;;;;;;6179331;23;20088;-73
2022/07/07 08:00:41;;;;;;;0.20;0.20;;;16.50;99.90;;;;;;6208329;23;20048;-74
2022/07/07 08:03:07;;;;;;;0.20;0.20;;;16.60;99.90;;;;;;6209922;23;20310;-73
2022/07/07 08:05:33;;;;;;;0.10;0.10;;;16.60;99.90;;;;;;6180342;23;20349;-73
2022/07/07 08:07:58;;;;;;;0.15;0.15;;;16.60;99.90;;;;;;6208446;23;20088;-73
2022/07/07 08:10:24;;;;;;;0.20;0.20;;;16.80;99.90;;;;;;6183914;23;20017;-74
2022/07/07 08:12:50;;;;;;;0.20;0.20;;;16.70;99.90;;;;;;6207840;23;20107;-72
2022/07/07 08:15:16;;;;;;;0.20;0.20;;;16.70;99.90;;;;;;6209182;23;20013;-74
2022/07/07 08:17:49;;;;;;;0.20;0.20;;;16.70;99.90;;;;;;6210210;23;20020;-73
2022/07/07 08:20:17;;;;;;;0.10;0.10;;;16.80;99.90;;;;;;6205662;23;20016;-74
2022/07/07 08:22:43;;;;;;;0.20;0.20;;;16.90;99.90;;;;;;6206552;23;20020;-77
2022/07/07 08:25:08;;;;;;;0.20;0.20;;;17.10;99.90;;;;;;6207754;23;20020;-74
2022/07/07 08:27:34;;;;;;;0.10;0.10;;;17.20;99.90;;;;;;6209155;23;20020;-77
2022/07/07 08:30:01;;;;;;;0.10;0.10;;;17.20;99.90;;;;;;6182399;23;20020;-74
2022/07/07 08:32:26;;;;;;;0.10;0.10;;;17.20;99.90;;;;;;6209586;23;20020;-76
2022/07/07 08:34:52;;;;;;;0.10;0.10;;;17.10;99.90;;;;;;6182472;23;20082;-75
2022/07/07 08:37:17;;;;;;;0.20;0.20;;;17.10;99.90;;;;;;6209710;23;20449;-74
2022/07/07 08:39:44;;;;;;;0.20;0.20;;;17.00;99.90;;;;;;6210075;23;20020;-75
2022/07/07 08:42:11;;;;;;;0.10;0.10;;;17.20;99.90;;;;;;6210562;23;20020;-75
2022/07/07 08:44:36;;;;;;;0.10;0.10;;;17.10;99.90;;;;;;6209759;23;20013;-74
2022/07/07 08:47:02;;;;;;;0.10;0.10;;;17.20;99.90;;;;;;6209192;23;20051;-74
2022/07/07 08:49:28;;;;;;;0.20;0.20;;;17.10;99.90;;;;;;6183076;23;20426;-75
2022/07/07 08:52:01;;;;;;;0.10;0.10;;;17.20;99.90;;;;;;6210724;23;20084;-74
2022/07/07 08:54:27;;;;;;;0.10;0.10;;;17.20;99.90;;;;;;6209972;23;20008;-73
2022/07/07 08:56:55;;;;;;;0.20;0.20;;;17.30;99.90;;;;;;6209915;23;20031;-74
2022/07/07 08:59:22;;;;;;;0.10;0.10;;;17.30;99.90;;;;;;6183515;23;20016;-74
2022/07/07 09:02:01;;;;;;;0.10;0.10;;;17.30;99.90;;;;;;6209347;23;20143;-75
2022/07/07 09:04:27;;;;;;;0.10;0.10;;;17.30;99.90;;;;;;6210401;23;20019;-74
2022/07/07 09:07:05;;;;;;;0.10;0.10;;;17.30;99.90;;;;;;6183397;23;20020;-74
2022/07/07 09:09:37;;;;;;;0.20;0.20;;;17.30;99.90;;;;;;6180256;23;20119;-73
2022/07/07 09:12:05;;;;;;;0.10;0.10;;;17.40;99.90;;;;;;6207179;23;20020;-74
2022/07/07 09:14:37;;;;;;;0.10;0.10;;;17.30;99.90;;;;;;6207723;23;20131;-74
2022/07/07 09:17:03;;;;;;;0.20;0.20;;;17.30;99.90;;;;;;6180721;23;20013;-75
2022/07/07 09:19:28;;;;;;;0.10;0.10;;;17.40;99.90;;;;;;6207580;23;20019;-74
2022/07/07 09:21:54;;;;;;;0.10;0.10;;;17.30;99.90;;;;;;6183939;23;20353;-74
2022/07/07 09:24:20;;;;;;;0.10;0.10;;;17.20;99.90;;;;;;6181621;23;20024;-74
2022/07/07 09:26:50;;;;;;;0.17;0.17;;;17.30;99.90;;;;;;6209516;23;20017;-74
2022/07/07 09:29:27;;;;;;;0.10;0.10;;;17.40;99.90;;;;;;6210353;23;20062;-76
2022/07/07 09:31:59;;;;;;;0.10;0.10;;;17.40;99.90;;;;;;6181772;23;20087;-78
2022/07/07 09:34:30;;;;;;;0.10;0.10;;;17.40;99.90;;;;;;6207295;23;20028;-73
2022/07/07 09:39:46;;;;;;;0.20;0.20;;;17.50;99.90;;;;;;6206031;23;20060;-74
2022/07/07 09:42:21;;;;;;;0.10;0.10;;;17.30;99.90;;;;;;6206932;23;20048;-73
2022/07/07 09:44:49;;;;;;;0.20;0.20;;;17.20;99.90;;;;;;6205464;23;20016;-74
2022/07/07 09:47:15;;;;;;;0.20;0.20;;;17.10;99.90;;;;;;6179293;23;20338;-73
2022/07/07 09:49:56;;;;;;;0.20;0.20;;;17.00;99.90;;;;;;6206698;23;20027;-73
2022/07/07 09:52:22;;;;;;;0.10;0.10;;;17.00;99.90;;;;;;6180728;23;20131;-73
2022/07/07 09:54:53;;;;;;;0.20;0.20;;;17.10;99.90;;;;;;6168962;23;20101;-74
2022/07/07 09:57:19;;;;;;;0.10;0.10;;;17.00;99.90;;;;;;6206214;23;20099;-74
2022/07/07 09:59:45;;;;;;;0.10;0.10;;;17.10;99.90;;;;;;6177941;23;20022;-73
2022/07/07 10:02:25;;;;;;;0.20;0.20;;;17.10;99.90;;;;;;6207624;23;20024;-74
2022/07/07 10:04:56;;;;;;;0.10;0.10;;;17.20;99.90;;;;;;6207296;23;20325;-74
2022/07/07 10:07:28;;;;;;;0.10;0.10;;;17.30;99.90;;;;;;6177109;23;20025;-74
2022/07/07 10:10:00;;;;;;;;;;;17.30;99.90;;;;;;6181017;23;20502;-73
2022/07/07 10:12:28;;;;;;;0.10;0.10;;;17.20;99.90;;;;;;6209368;23;19916;-73
2022/07/07 10:15:05;;;;;;;0.10;0.10;;;17.20;99.90;;;;;;6208081;23;20024;-73
2022/07/07 10:17:31;;;;;;;0.20;0.20;;;17.20;99.90;;;;;;6206183;23;20087;-72
2022/07/07 10:19:57;;;;;;;0.10;0.10;;;17.20;99.90;;;;;;6207900;23;20009;-73
2022/07/07 10:22:27;;;;;;;0.10;0.10;;;17.10;99.90;;;;;;6182867;23;20020;-73
2022/07/07 10:25:06;;;;;;;0.10;0.10;;;17.00;99.90;;;;;;6209682;23;20131;-73
2022/07/07 10:27:33;;;;;;;0.10;0.10;;;16.90;99.90;;;;;;6182333;23;20021;-74
2022/07/07 10:30:04;;;;;;;0.10;0.10;;;16.80;99.90;;;;;;6207726;23;20021;-74
2022/07/07 10:32:41;;;;;;;0.20;0.20;;;16.80;99.90;;;;;;6209567;23;20024;-73
2022/07/07 10:35:11;;;;;;;0.10;0.10;;;16.70;99.90;;;;;;6209388;23;20013;-74
2022/07/07 10:37:42;;;;;;;0.10;0.10;;;16.70;99.90;;;;;;6207149;23;20129;-72
2022/07/07 10:40:25;;;;;;;0.10;0.10;;;17.10;99.90;;;;;;6180982;23;20017;-72
2022/07/07 10:43:09;;;;;;;0.10;0.10;;;16.60;99.90;;;;;;6181311;23;20092;-74
2022/07/07 10:45:35;;;;;;;0.10;0.10;;;16.50;99.90;;;;;;6213498;23;20040;-73
2022/07/07 10:48:07;;;;;;;0.10;0.10;;;16.60;99.90;;;;;;6210324;23;20384;-72
2022/07/07 10:50:34;;;;;;;0.10;0.10;;;16.50;99.90;;;;;;6214048;23;20094;-72
2022/07/07 10:53:00;;;;;;;0.17;0.17;;;16.50;99.90;;;;;;6212210;23;20017;-73
2022/07/07 10:55:56;;;;;;;0.15;0.15;;;16.50;99.90;;;;;;6211046;23;20095;-73
2022/07/07 10:58:43;;;;;;;0.20;0.20;;;16.50;99.90;;;;;;6207829;23;20050;-72
2022/07/07 11:01:10;;;;;;;0.20;0.20;;;16.60;99.90;;;;;;6210492;23;20087;-74
2022/07/07 11:03:39;;;;;;;0.10;0.10;;;16.70;99.90;;;;;;6181659;23;20012;-72
2022/07/07 11:06:05;;;;;;;0.10;0.10;;;16.60;99.90;;;;;;6209193;23;20024;-72
2022/07/07 11:08:36;;;;;;;0.10;0.10;;;16.60;99.90;;;;;;6178851;23;20082;-72
2022/07/07 11:11:04;;;;;;;0.10;0.10;;;16.50;99.90;;;;;;6210526;23;20020;-73
2022/07/07 11:13:39;;;;;;;0.10;0.10;;;16.50;99.90;;;;;;6212710;23;20043;-77
2022/07/07 11:16:15;;;;;;;0.10;0.10;;;16.50;99.90;;;;;;6211153;23;20021;-73
2022/07/07 11:18:59;;;;;;;0.10;0.10;;;16.50;99.90;;;;;;6185872;23;20026;-73
2022/07/07 11:21:46;;;;;;;0.17;0.17;;;16.50;99.90;;;;;;6185764;23;20141;-72
2022/07/07 11:24:39;;;;;;;0.10;0.10;;;16.50;99.90;;;;;;6211742;23;20103;-73
2022/07/07 11:27:05;;;;;;;0.20;0.20;;;16.50;99.90;;;;;;6165245;23;20043;-74
2022/07/07 11:29:31;;;;;;;0.10;0.10;;;16.60;99.90;;;;;;6183069;23;20032;-73
2022/07/07 11:32:06;;;;;;;0.10;0.10;;;16.70;99.90;;;;;;6211986;23;20055;-73
2022/07/07 11:34:43;;;;;;;0.15;0.15;;;16.70;99.90;;;;;;6185617;23;20020;-73
2022/07/07 11:37:28;;;;;;;0.10;0.10;;;16.80;99.90;;;;;;6184466;23;20091;-73
2022/07/07 11:39:55;;;;;;;0.10;0.10;;;17.00;99.90;;;;;;6184840;23;20099;-73
2022/07/07 11:42:21;;;;;;;0.17;0.17;;;17.10;99.90;;;;;;6212622;23;20020;-73
2022/07/07 11:44:47;;;;;;;0.10;0.10;;;17.30;99.90;;;;;;6211169;23;20020;-73
2022/07/07 11:47:13;;;;;;;0.17;0.17;;;17.40;99.90;;;;;;6211686;23;20013;-73
2022/07/07 11:49:40;;;;;;;0.20;0.20;;;17.50;99.90;;;;;;6213627;23;20445;-73
2022/07/07 11:52:10;;;;;;;0.10;0.10;;;17.50;99.90;;;;;;6210816;23;20036;-73
2022/07/07 11:54:47;;;;;;;0.10;0.10;;;17.60;99.90;;;;;;6212840;23;20078;-73
2022/07/07 11:57:34;;;;;;;0.10;0.10;;;17.60;99.90;;;;;;6211364;23;20112;-73
2022/07/07 12:00:17;;;;;;;0.10;0.10;;;17.60;99.90;;;;;;6210049;23;20024;-73
2022/07/07 12:02:44;;;;;;;0.10;0.10;;;17.60;99.90;;;;;;6211149;23;20083;-73
2022/07/07 12:05:11;;;;;;;0.10;0.10;;;17.60;99.90;;;;;;6210667;23;20012;-74
2022/07/07 12:07:37;;;;;;;0.10;0.10;;;17.60;99.90;;;;;;6183460;23;20016;-74
2022/07/07 12:10:20;;;;;;;0.10;0.10;;;17.50;99.90;;;;;;6211696;23;20066;-72
2022/07/07 12:12:54;;;;;;;0.20;0.20;;;17.40;99.90;;;;;;6209942;23;20357;-74
2022/07/07 12:15:20;;;;;;;0.20;0.20;;;17.30;99.90;;;;;;6185036;23;20394;-72
2022/07/07 12:17:49;;;;;;;0.17;0.17;;;17.30;99.90;;;;;;6183666;23;20462;-72
2022/07/07 12:20:18;;;;;;;0.20;0.20;;;17.40;99.90;;;;;;6183505;23;20043;-73
2022/07/07 12:22:49;;;;;;;0.20;0.20;;;17.50;99.90;;;;;;6181670;23;20016;-73
2022/07/07 12:25:15;;;;;;;0.10;0.10;;;17.60;99.90;;;;;;6184426;23;20021;-74
2022/07/07 12:28:03;;;;;;;0.10;0.10;;;17.60;99.90;;;;;;6210003;23;20544;-72
2022/07/07 12:30:55;;;;;;;0.10;0.10;;;17.70;99.90;;;;;;6183851;23;20075;-73
2022/07/07 12:33:30;;;;;;;0.10;0.10;;;17.70;99.90;;;;;;6182930;23;20547;-74
2022/07/07 12:36:09;;;;;;;0.20;0.20;;;17.70;99.90;;;;;;6211225;23;20009;-74
2022/07/07 12:39:05;;;;;;;0.10;0.10;;;17.60;99.90;;;;;;6182767;23;20020;-74
2022/07/07 12:41:36;;;;;;;0.10;0.10;;;17.50;99.90;;;;;;6183815;23;20437;-73
2022/07/07 12:44:15;;;;;;;0.10;0.10;;;17.50;99.90;;;;;;6208594;23;20103;-74
2022/07/07 12:46:42;;;;;;;0.20;0.20;;;17.50;99.90;;;;;;6184914;23;20099;-72
2022/07/07 12:49:08;;;;;;;0.20;0.20;;;17.40;99.90;;;;;;6209385;23;20291;-72
2022/07/07 12:51:34;;;;;;;0.10;0.10;;;17.40;99.90;;;;;;6183615;23;20024;-73
2022/07/07 12:54:01;;;;;;;0.15;0.15;;;17.30;99.90;;;;;;6182182;23;20016;-74
2022/07/07 12:56:34;;;;;;;0.10;0.10;;;17.20;99.90;;;;;;6183794;23;20028;-72